AIC137 VNLK-VEBI
Flight info
| Callsign | AIC137 |
|---|---|
| Flight time | 1h 13m |
| Altitude | 29000 |
| Route | TUMLI G348 BGD Q18 GGT |
| Aircraft | TBM8/L-SDFGRWY/S |
Departure
| Time | 2026-04-26 10:25 |
|---|---|
| Airport | Tenzing-Hillary Airport (VNLK) |
Arrival
| Time | 2026-04-26 11:38 |
|---|---|
| Airport | Shillong Airport (VEBI) |
| Time | Latitude | Longitude | Altitude | Speed | Heading |
|---|---|---|---|---|---|
| 2026-04-26 10:21 | 27.68725 | 86.73160 | 9386 ft | 3 kts | 58° |
| 2026-04-26 10:22 | 27.68766 | 86.73161 | 9386 ft | 4 kts | 336° |
| 2026-04-26 10:22 | 27.68784 | 86.73163 | 9388 ft | 2 kts | 24° |
| 2026-04-26 10:22 | 27.68801 | 86.73179 | 9391 ft | 0 kts | 79° |
| 2026-04-26 10:22 | 27.68801 | 86.73182 | 9391 ft | 0 kts | 117° |
| 2026-04-26 10:23 | 27.68799 | 86.73184 | 9391 ft | 1 kts | 166° |
| 2026-04-26 10:23 | 27.68796 | 86.73183 | 9391 ft | 0 kts | 239° |
| 2026-04-26 10:23 | 27.68793 | 86.73176 | 9390 ft | 9 kts | 242° |
| 2026-04-26 10:24 | 27.68657 | 86.72914 | 9266 ft | 74 kts | 239° |
| 2026-04-26 10:24 | 27.68306 | 86.72232 | 9204 ft | 118 kts | 233° |
| 2026-04-26 10:24 | 27.67572 | 86.71614 | 9268 ft | 149 kts | 206° |
| 2026-04-26 10:24 | 27.66520 | 86.71099 | 9331 ft | 169 kts | 208° |
| 2026-04-26 10:25 | 27.65549 | 86.70457 | 9942 ft | 158 kts | 211° |
| 2026-04-26 10:25 | 27.64636 | 86.69793 | 10450 ft | 152 kts | 214° |
| 2026-04-26 10:25 | 27.63745 | 86.69176 | 10903 ft | 151 kts | 200° |
| 2026-04-26 10:25 | 27.62706 | 86.69227 | 11290 ft | 156 kts | 155° |
| 2026-04-26 10:26 | 27.61982 | 86.70128 | 11677 ft | 162 kts | 111° |
| 2026-04-26 10:26 | 27.61852 | 86.71392 | 12050 ft | 165 kts | 92° |
| 2026-04-26 10:26 | 27.61882 | 86.72688 | 12476 ft | 166 kts | 90° |
| 2026-04-26 10:26 | 27.61904 | 86.73999 | 12938 ft | 163 kts | 100° |
| 2026-04-26 10:27 | 27.61564 | 86.75187 | 13376 ft | 163 kts | 116° |
| 2026-04-26 10:27 | 27.60956 | 86.76290 | 13725 ft | 168 kts | 129° |
| 2026-04-26 10:27 | 27.60194 | 86.77294 | 14175 ft | 169 kts | 132° |
| 2026-04-26 10:27 | 27.59425 | 86.78302 | 14596 ft | 170 kts | 131° |
| 2026-04-26 10:28 | 27.58677 | 86.79338 | 14933 ft | 171 kts | 130° |
| 2026-04-26 10:28 | 27.57933 | 86.80403 | 15187 ft | 174 kts | 129° |
| 2026-04-26 10:28 | 27.57192 | 86.81484 | 15448 ft | 174 kts | 128° |
| 2026-04-26 10:29 | 27.55737 | 86.83637 | 16072 ft | 176 kts | 127° |
| 2026-04-26 10:29 | 27.54998 | 86.84753 | 16350 ft | 180 kts | 128° |
| 2026-04-26 10:29 | 27.54250 | 86.85864 | 16672 ft | 180 kts | 127° |
| 2026-04-26 10:29 | 27.53488 | 86.87011 | 16953 ft | 184 kts | 128° |
| 2026-04-26 10:30 | 27.52717 | 86.88163 | 17270 ft | 184 kts | 128° |
| 2026-04-26 10:30 | 27.51942 | 86.89321 | 17586 ft | 187 kts | 127° |
| 2026-04-26 10:30 | 27.51163 | 86.90486 | 17946 ft | 186 kts | 127° |
| 2026-04-26 10:30 | 27.50379 | 86.91656 | 18245 ft | 189 kts | 127° |
| 2026-04-26 10:31 | 27.49580 | 86.92846 | 18541 ft | 191 kts | 128° |
| 2026-04-26 10:31 | 27.48777 | 86.94053 | 18751 ft | 195 kts | 128° |
| 2026-04-26 10:31 | 27.47955 | 86.95273 | 19038 ft | 196 kts | 128° |
| 2026-04-26 10:31 | 27.47148 | 86.96474 | 19269 ft | 198 kts | 129° |
| 2026-04-26 10:32 | 27.46318 | 86.97696 | 19532 ft | 197 kts | 131° |
| 2026-04-26 10:32 | 27.45488 | 86.98916 | 19783 ft | 198 kts | 128° |
| 2026-04-26 10:32 | 27.44673 | 87.00181 | 20003 ft | 199 kts | 129° |
| 2026-04-26 10:32 | 27.43844 | 87.01438 | 20200 ft | 200 kts | 128° |
| 2026-04-26 10:33 | 27.43004 | 87.02684 | 20478 ft | 198 kts | 128° |
| 2026-04-26 10:33 | 27.42170 | 87.03925 | 20696 ft | 201 kts | 129° |
| 2026-04-26 10:33 | 27.41323 | 87.05185 | 20901 ft | 203 kts | 129° |
| 2026-04-26 10:33 | 27.40478 | 87.06464 | 21216 ft | 204 kts | 128° |
| 2026-04-26 10:34 | 27.39633 | 87.07726 | 21467 ft | 206 kts | 129° |
| 2026-04-26 10:34 | 27.38760 | 87.09010 | 21737 ft | 207 kts | 129° |
| 2026-04-26 10:34 | 27.37878 | 87.10301 | 21984 ft | 209 kts | 129° |
| 2026-04-26 10:34 | 27.36997 | 87.11607 | 22266 ft | 209 kts | 129° |
| 2026-04-26 10:35 | 27.36119 | 87.12916 | 22501 ft | 211 kts | 129° |
| 2026-04-26 10:35 | 27.35233 | 87.14235 | 22737 ft | 211 kts | 129° |
| 2026-04-26 10:35 | 27.34348 | 87.15557 | 22973 ft | 212 kts | 129° |
| 2026-04-26 10:35 | 27.33465 | 87.16886 | 23206 ft | 213 kts | 129° |
| 2026-04-26 10:36 | 27.32589 | 87.18203 | 23407 ft | 213 kts | 129° |
| 2026-04-26 10:36 | 27.31712 | 87.19556 | 23578 ft | 215 kts | 126° |
| 2026-04-26 10:36 | 27.30898 | 87.20969 | 23767 ft | 216 kts | 124° |
| 2026-04-26 10:36 | 27.30094 | 87.22396 | 23950 ft | 217 kts | 124° |
| 2026-04-26 10:37 | 27.29307 | 87.23843 | 24145 ft | 217 kts | 123° |
| 2026-04-26 10:37 | 27.28521 | 87.25298 | 24332 ft | 218 kts | 123° |
| 2026-04-26 10:37 | 27.27733 | 87.26757 | 24517 ft | 219 kts | 123° |
| 2026-04-26 10:37 | 27.26934 | 87.28213 | 24709 ft | 219 kts | 124° |
| 2026-04-26 10:38 | 27.26138 | 87.29651 | 24884 ft | 220 kts | 124° |
| 2026-04-26 10:38 | 27.25326 | 87.31109 | 25076 ft | 220 kts | 124° |
| 2026-04-26 10:38 | 27.24517 | 87.32579 | 25281 ft | 221 kts | 124° |
| 2026-04-26 10:38 | 27.23710 | 87.34054 | 25449 ft | 222 kts | 124° |
| 2026-04-26 10:39 | 27.22896 | 87.35530 | 25630 ft | 223 kts | 123° |
| 2026-04-26 10:39 | 27.22080 | 87.37016 | 25829 ft | 224 kts | 124° |
| 2026-04-26 10:39 | 27.21257 | 87.38503 | 26014 ft | 225 kts | 124° |
| 2026-04-26 10:39 | 27.20429 | 87.39996 | 26158 ft | 225 kts | 124° |
| 2026-04-26 10:40 | 27.19601 | 87.41492 | 26363 ft | 226 kts | 124° |
| 2026-04-26 10:40 | 27.18772 | 87.42995 | 26550 ft | 227 kts | 124° |
| 2026-04-26 10:40 | 27.17936 | 87.44505 | 26737 ft | 228 kts | 124° |
| 2026-04-26 10:40 | 27.17112 | 87.45997 | 26898 ft | 229 kts | 124° |
| 2026-04-26 10:41 | 27.16269 | 87.47526 | 27019 ft | 230 kts | 124° |
| 2026-04-26 10:41 | 27.15426 | 87.49048 | 27219 ft | 229 kts | 124° |
| 2026-04-26 10:41 | 27.14577 | 87.50574 | 27334 ft | 232 kts | 124° |
| 2026-04-26 10:41 | 27.13727 | 87.52121 | 27500 ft | 234 kts | 124° |
| 2026-04-26 10:42 | 27.12868 | 87.53670 | 27685 ft | 234 kts | 125° |
| 2026-04-26 10:42 | 27.12003 | 87.55229 | 27836 ft | 236 kts | 125° |
| 2026-04-26 10:42 | 27.11145 | 87.56773 | 28069 ft | 236 kts | 125° |
| 2026-04-26 10:42 | 27.10276 | 87.58341 | 28270 ft | 236 kts | 125° |
| 2026-04-26 10:43 | 27.09407 | 87.59913 | 28449 ft | 237 kts | 125° |
| 2026-04-26 10:43 | 27.08533 | 87.61489 | 28576 ft | 238 kts | 125° |
| 2026-04-26 10:43 | 27.07658 | 87.63066 | 28759 ft | 238 kts | 125° |
| 2026-04-26 10:43 | 27.06777 | 87.64650 | 28866 ft | 242 kts | 125° |
| 2026-04-26 10:44 | 27.05871 | 87.66273 | 28891 ft | 249 kts | 125° |
| 2026-04-26 10:44 | 27.04935 | 87.67944 | 28912 ft | 257 kts | 125° |
| 2026-04-26 10:44 | 27.03968 | 87.69672 | 28900 ft | 265 kts | 125° |
| 2026-04-26 10:44 | 27.02982 | 87.71445 | 28940 ft | 272 kts | 124° |
| 2026-04-26 10:45 | 27.01975 | 87.73237 | 28946 ft | 279 kts | 124° |
| 2026-04-26 10:45 | 27.00934 | 87.75110 | 28949 ft | 287 kts | 124° |
| 2026-04-26 10:45 | 26.99864 | 87.77034 | 28932 ft | 293 kts | 124° |
| 2026-04-26 10:45 | 26.98777 | 87.78992 | 28940 ft | 299 kts | 124° |
| 2026-04-26 10:46 | 26.96542 | 87.83013 | 28891 ft | 308 kts | 124° |
| 2026-04-26 10:46 | 26.94247 | 87.87135 | 28897 ft | 315 kts | 124° |
| 2026-04-26 10:47 | 26.91918 | 87.91311 | 28891 ft | 320 kts | 124° |
| 2026-04-26 10:47 | 26.89543 | 87.95565 | 28878 ft | 324 kts | 124° |
| 2026-04-26 10:48 | 26.87140 | 87.99857 | 28900 ft | 327 kts | 124° |
| 2026-04-26 10:48 | 26.84708 | 88.04199 | 28849 ft | 330 kts | 124° |
| 2026-04-26 10:49 | 26.82254 | 88.08577 | 28833 ft | 333 kts | 125° |
| 2026-04-26 10:49 | 26.79805 | 88.12941 | 28864 ft | 335 kts | 124° |
| 2026-04-26 10:50 | 26.77724 | 88.16644 | 28859 ft | 336 kts | 124° |
| 2026-04-26 10:50 | 26.74840 | 88.21809 | 28859 ft | 337 kts | 123° |
| 2026-04-26 10:51 | 26.71135 | 88.28528 | 28808 ft | 339 kts | 123° |
| 2026-04-26 10:52 | 26.68946 | 88.33166 | 28811 ft | 342 kts | 110° |
| 2026-04-26 10:52 | 26.67834 | 88.38340 | 28813 ft | 343 kts | 101° |
| 2026-04-26 10:53 | 26.66943 | 88.43581 | 28802 ft | 343 kts | 100° |
| 2026-04-26 10:53 | 26.66048 | 88.48825 | 28809 ft | 343 kts | 100° |
| 2026-04-26 10:54 | 26.64698 | 88.56631 | 28815 ft | 342 kts | 100° |
| 2026-04-26 10:54 | 26.63790 | 88.61836 | 28822 ft | 341 kts | 100° |
| 2026-04-26 10:55 | 26.62881 | 88.67035 | 28839 ft | 341 kts | 100° |
| 2026-04-26 10:55 | 26.61971 | 88.72227 | 28823 ft | 340 kts | 100° |
| 2026-04-26 10:56 | 26.61061 | 88.77414 | 28825 ft | 340 kts | 100° |
| 2026-04-26 10:56 | 26.60148 | 88.82594 | 28830 ft | 340 kts | 100° |
| 2026-04-26 10:57 | 26.59240 | 88.87739 | 28833 ft | 340 kts | 101° |
| 2026-04-26 10:57 | 26.58324 | 88.92910 | 28838 ft | 339 kts | 101° |
| 2026-04-26 10:58 | 26.57426 | 88.98091 | 28872 ft | 340 kts | 100° |
| 2026-04-26 10:58 | 26.56544 | 89.03271 | 28852 ft | 340 kts | 100° |
| 2026-04-26 10:59 | 26.55657 | 89.08451 | 28850 ft | 340 kts | 99° |
| 2026-04-26 10:59 | 26.54769 | 89.13635 | 28852 ft | 340 kts | 99° |
| 2026-04-26 11:00 | 26.53870 | 89.18785 | 28848 ft | 340 kts | 99° |
| 2026-04-26 11:00 | 26.52977 | 89.23979 | 28846 ft | 341 kts | 100° |
| 2026-04-26 11:01 | 26.52085 | 89.29165 | 28835 ft | 340 kts | 100° |
| 2026-04-26 11:01 | 26.51186 | 89.34345 | 28829 ft | 340 kts | 100° |
| 2026-04-26 11:02 | 26.50287 | 89.39520 | 28819 ft | 339 kts | 100° |
| 2026-04-26 11:02 | 26.49387 | 89.44687 | 28814 ft | 339 kts | 100° |
| 2026-04-26 11:03 | 26.48489 | 89.49821 | 28808 ft | 339 kts | 100° |
| 2026-04-26 11:03 | 26.47585 | 89.54978 | 28813 ft | 339 kts | 100° |
| 2026-04-26 11:04 | 26.46681 | 89.60130 | 28818 ft | 338 kts | 100° |
| 2026-04-26 11:04 | 26.45775 | 89.65283 | 28825 ft | 338 kts | 100° |
| 2026-04-26 11:05 | 26.44867 | 89.70433 | 28843 ft | 338 kts | 100° |
| 2026-04-26 11:05 | 26.43957 | 89.75581 | 28858 ft | 338 kts | 100° |
| 2026-04-26 11:06 | 26.43051 | 89.80699 | 28865 ft | 339 kts | 100° |
| 2026-04-26 11:06 | 26.42137 | 89.85845 | 28873 ft | 339 kts | 100° |
| 2026-04-26 11:07 | 26.41221 | 89.91002 | 28901 ft | 340 kts | 101° |
| 2026-04-26 11:07 | 26.40298 | 89.96178 | 28879 ft | 340 kts | 100° |
| 2026-04-26 11:08 | 26.39372 | 90.01356 | 28884 ft | 340 kts | 101° |
| 2026-04-26 11:08 | 26.38445 | 90.06535 | 28880 ft | 341 kts | 101° |
| 2026-04-26 11:09 | 26.37522 | 90.11684 | 28877 ft | 341 kts | 101° |
| 2026-04-26 11:09 | 26.36590 | 90.16871 | 28875 ft | 341 kts | 101° |
| 2026-04-26 11:10 | 26.35654 | 90.22064 | 28905 ft | 343 kts | 101° |
| 2026-04-26 11:10 | 26.34711 | 90.27284 | 28878 ft | 344 kts | 101° |
| 2026-04-26 11:11 | 26.33773 | 90.32469 | 28868 ft | 343 kts | 101° |
| 2026-04-26 11:11 | 26.32828 | 90.37683 | 28864 ft | 343 kts | 101° |
| 2026-04-26 11:12 | 26.31881 | 90.42884 | 28862 ft | 342 kts | 101° |
| 2026-04-26 11:12 | 26.30937 | 90.48066 | 28863 ft | 341 kts | 101° |
| 2026-04-26 11:13 | 26.29995 | 90.53228 | 28855 ft | 340 kts | 101° |
| 2026-04-26 11:13 | 26.29059 | 90.58345 | 28859 ft | 339 kts | 101° |
| 2026-04-26 11:14 | 26.28116 | 90.63490 | 28856 ft | 339 kts | 101° |
| 2026-04-26 11:14 | 26.27192 | 90.68635 | 28854 ft | 338 kts | 99° |
| 2026-04-26 11:15 | 26.26432 | 90.73809 | 28852 ft | 338 kts | 98° |
| 2026-04-26 11:15 | 26.25696 | 90.78977 | 28858 ft | 337 kts | 98° |
| 2026-04-26 11:16 | 26.24942 | 90.84134 | 28849 ft | 337 kts | 98° |
| 2026-04-26 11:16 | 26.24184 | 90.89254 | 28850 ft | 337 kts | 98° |
| 2026-04-26 11:17 | 26.23413 | 90.94410 | 28852 ft | 338 kts | 98° |
| 2026-04-26 11:17 | 26.22638 | 90.99570 | 28851 ft | 338 kts | 98° |
| 2026-04-26 11:18 | 26.21862 | 91.04725 | 28851 ft | 338 kts | 98° |
| 2026-04-26 11:18 | 26.21084 | 91.09885 | 28846 ft | 338 kts | 98° |
| 2026-04-26 11:19 | 26.20303 | 91.15044 | 28851 ft | 338 kts | 98° |
| 2026-04-26 11:19 | 26.19526 | 91.20159 | 28848 ft | 337 kts | 99° |
| 2026-04-26 11:20 | 26.18877 | 91.24429 | 28841 ft | 336 kts | 99° |
| 2026-04-26 11:20 | 26.17964 | 91.30421 | 28838 ft | 335 kts | 99° |
| 2026-04-26 11:21 | 26.17183 | 91.35533 | 28838 ft | 335 kts | 99° |
| 2026-04-26 11:21 | 26.16401 | 91.40640 | 28838 ft | 334 kts | 99° |
| 2026-04-26 11:22 | 26.15618 | 91.45739 | 28836 ft | 334 kts | 99° |
| 2026-04-26 11:22 | 26.14840 | 91.50795 | 28835 ft | 333 kts | 99° |
| 2026-04-26 11:23 | 26.14056 | 91.55879 | 28842 ft | 333 kts | 99° |
| 2026-04-26 11:23 | 26.12548 | 91.60648 | 28851 ft | 330 kts | 134° |
| 2026-04-26 11:24 | 26.09053 | 91.63919 | 28872 ft | 328 kts | 145° |
| 2026-04-26 11:24 | 26.07219 | 91.65449 | 28629 ft | 335 kts | 145° |
| 2026-04-26 11:24 | 26.05308 | 91.67066 | 27923 ft | 353 kts | 144° |
| 2026-04-26 11:25 | 26.03613 | 91.69036 | 27223 ft | 355 kts | 123° |
| 2026-04-26 11:25 | 26.02609 | 91.71512 | 26535 ft | 357 kts | 111° |
| 2026-04-26 11:25 | 26.01716 | 91.74078 | 25841 ft | 352 kts | 112° |
| 2026-04-26 11:25 | 26.00827 | 91.76537 | 25143 ft | 331 kts | 113° |
| 2026-04-26 11:26 | 26.00004 | 91.78833 | 24912 ft | 311 kts | 112° |
| 2026-04-26 11:26 | 25.99246 | 91.81036 | 24899 ft | 300 kts | 112° |
| 2026-04-26 11:26 | 25.98494 | 91.83164 | 24891 ft | 291 kts | 112° |
| 2026-04-26 11:26 | 25.97738 | 91.85242 | 24585 ft | 295 kts | 113° |
| 2026-04-26 11:27 | 25.96950 | 91.87319 | 23924 ft | 285 kts | 115° |
| 2026-04-26 11:27 | 25.96191 | 91.89310 | 23242 ft | 273 kts | 114° |
| 2026-04-26 11:27 | 25.95514 | 91.91150 | 22477 ft | 247 kts | 114° |
| 2026-04-26 11:27 | 25.94897 | 91.92854 | 21722 ft | 230 kts | 114° |
| 2026-04-26 11:28 | 25.94315 | 91.94457 | 20996 ft | 219 kts | 114° |
| 2026-04-26 11:28 | 25.93750 | 91.96004 | 20263 ft | 213 kts | 114° |
| 2026-04-26 11:28 | 25.93193 | 91.97522 | 19552 ft | 212 kts | 114° |
| 2026-04-26 11:28 | 25.92639 | 91.99020 | 18647 ft | 209 kts | 114° |
| 2026-04-26 11:29 | 25.92002 | 92.00645 | 16605 ft | 244 kts | 116° |
| 2026-04-26 11:29 | 25.91291 | 92.02399 | 14766 ft | 250 kts | 116° |
| 2026-04-26 11:29 | 25.90564 | 92.04148 | 12915 ft | 248 kts | 117° |
| 2026-04-26 11:29 | 25.89828 | 92.05871 | 10961 ft | 243 kts | 119° |
| 2026-04-26 11:30 | 25.89097 | 92.07450 | 10042 ft | 208 kts | 121° |
| 2026-04-26 11:30 | 25.88732 | 92.08391 | 9608 ft | 195 kts | 111° |
| 2026-04-26 11:30 | 25.88052 | 92.10061 | 8628 ft | 156 kts | 135° |
| 2026-04-26 11:30 | 25.87275 | 92.10742 | 7899 ft | 134 kts | 162° |
| 2026-04-26 11:31 | 25.86438 | 92.11020 | 7288 ft | 114 kts | 186° |
| 2026-04-26 11:31 | 25.85706 | 92.10995 | 6882 ft | 100 kts | 196° |
| 2026-04-26 11:31 | 25.85093 | 92.10837 | 6649 ft | 88 kts | 208° |
| 2026-04-26 11:31 | 25.84469 | 92.10619 | 6535 ft | 97 kts | 204° |
| 2026-04-26 11:32 | 25.83806 | 92.10419 | 6463 ft | 100 kts | 203° |
| 2026-04-26 11:32 | 25.83210 | 92.10082 | 6283 ft | 95 kts | 238° |
| 2026-04-26 11:32 | 25.82956 | 92.09425 | 6084 ft | 91 kts | 246° |
| 2026-04-26 11:32 | 25.82607 | 92.08864 | 5993 ft | 89 kts | 234° |
| 2026-04-26 11:33 | 25.82165 | 92.08357 | 5862 ft | 93 kts | 225° |
| 2026-04-26 11:33 | 25.81648 | 92.07896 | 5728 ft | 98 kts | 221° |
| 2026-04-26 11:33 | 25.81100 | 92.07436 | 5585 ft | 96 kts | 223° |
| 2026-04-26 11:33 | 25.80634 | 92.07036 | 5483 ft | 76 kts | 225° |
| 2026-04-26 11:34 | 25.80212 | 92.06644 | 5389 ft | 87 kts | 224° |
| 2026-04-26 11:34 | 25.79721 | 92.06181 | 5279 ft | 99 kts | 223° |
| 2026-04-26 11:34 | 25.79185 | 92.05658 | 5052 ft | 106 kts | 227° |
| 2026-04-26 11:34 | 25.78668 | 92.05048 | 4783 ft | 110 kts | 227° |
| 2026-04-26 11:35 | 25.78160 | 92.04434 | 4538 ft | 108 kts | 227° |
| 2026-04-26 11:35 | 25.77644 | 92.03826 | 4304 ft | 108 kts | 226° |
| 2026-04-26 11:35 | 25.77134 | 92.03341 | 4395 ft | 95 kts | 202° |
| 2026-04-26 11:35 | 25.76684 | 92.03176 | 4263 ft | 107 kts | 198° |
| 2026-04-26 11:36 | 25.75753 | 92.02665 | 4078 ft | 118 kts | 218° |
| 2026-04-26 11:36 | 25.75166 | 92.02111 | 4106 ft | 109 kts | 221° |
| 2026-04-26 11:36 | 25.74581 | 92.01538 | 3923 ft | 112 kts | 222° |
| 2026-04-26 11:36 | 25.74033 | 92.01018 | 3758 ft | 95 kts | 219° |
| 2026-04-26 11:37 | 25.73520 | 92.00585 | 3616 ft | 93 kts | 215° |
| 2026-04-26 11:37 | 25.72996 | 92.00170 | 3482 ft | 90 kts | 216° |
| 2026-04-26 11:37 | 25.72524 | 91.99762 | 3359 ft | 83 kts | 218° |
| 2026-04-26 11:37 | 25.72070 | 91.99315 | 3209 ft | 92 kts | 220° |
| 2026-04-26 11:38 | 25.71570 | 91.98869 | 3063 ft | 91 kts | 217° |
| 2026-04-26 11:38 | 25.71091 | 91.98436 | 2931 ft | 87 kts | 218° |
| 2026-04-26 11:38 | 25.70648 | 91.98038 | 2901 ft | 74 kts | 217° |
| 2026-04-26 11:38 | 25.70383 | 91.97800 | 2903 ft | 20 kts | 214° |
| 2026-04-26 11:39 | 25.70355 | 91.97732 | 2904 ft | 4 kts | 310° |
| 2026-04-26 11:39 | 25.70411 | 91.97652 | 2905 ft | 21 kts | 310° |
| 2026-04-26 11:39 | 25.70478 | 91.97608 | 2907 ft | 4 kts | 347° |
| 2026-04-26 11:39 | 25.70485 | 91.97607 | 2907 ft | 0 kts | 348° |